Terminal Aerodrome Forecast
Issued by NWS

Home | Current Version | Previous Version | Graphics & Text | Print | Product List | Glossary On
Versions: 1 2 3 4 5 6 7 8 9 10 11 12 13 14 15 16 17 18 19 20
000
FTUS43 KABR 271735
TAFATY
TAF
KATY 271735Z 2718/2818 36008KT P6SM VCSH SCT040 BKN100
     FM280100 09006KT P6SM VCTS SCT060CB OVC100
     FM280500 VRB05KT P6SM OVC150
     FM280900 VRB05KT 2SM BR OVC015
     FM281400 VRB05KT P6SM BKN200=

USA.gov is the U.S. government's official web portal to all federal, state and local government web resources and services.